createdAt,value
2022-08-11T00:02:03.788Z,100.00
2022-08-11T00:04:39.443Z,100.00
2022-08-11T00:07:10.848Z,100.00
2022-08-11T00:09:41.084Z,100.00
2022-08-11T00:12:17.525Z,100.00
2022-08-11T00:14:56.371Z,100.00
2022-08-11T00:17:31.191Z,100.00
2022-08-11T00:20:15.075Z,100.00
2022-08-11T00:22:48.821Z,100.00
2022-08-11T00:25:22.800Z,100.00
2022-08-11T00:27:52.058Z,100.00
2022-08-11T00:30:21.319Z,100.00
2022-08-11T00:32:59.121Z,100.00
2022-08-11T00:35:54.433Z,100.00
2022-08-11T00:38:27.700Z,100.00
2022-08-11T00:41:05.645Z,100.00
2022-08-11T00:44:02.790Z,100.00
2022-08-11T00:46:43.987Z,100.00
2022-08-11T00:49:25.555Z,100.00
2022-08-11T00:52:11.556Z,100.00
2022-08-11T00:55:38.096Z,100.00
2022-08-11T00:59:26.395Z,100.00
2022-08-11T01:02:17.750Z,100.00
2022-08-11T01:05:21.790Z,100.00
2022-08-11T01:08:46.896Z,100.00
2022-08-11T01:12:06.203Z,100.00
2022-08-11T01:15:16.303Z,100.00
2022-08-11T01:18:56.099Z,100.00
2022-08-11T01:22:21.068Z,100.00
2022-08-11T01:25:57.301Z,100.00
2022-08-11T01:29:26.539Z,100.00
2022-08-11T01:32:48.935Z,100.00
2022-08-11T01:35:56.651Z,100.00
2022-08-11T01:39:03.930Z,100.00
2022-08-11T01:42:19.960Z,100.00
2022-08-11T01:45:12.685Z,100.00
2022-08-11T01:47:57.556Z,100.00
2022-08-11T01:50:47.579Z,100.00
2022-08-11T01:53:31.996Z,100.00
2022-08-11T01:56:15.521Z,100.00
2022-08-11T01:58:51.405Z,100.00
2022-08-11T02:01:44.463Z,100.00
2022-08-11T02:04:26.906Z,100.00
2022-08-11T02:07:11.091Z,100.00
2022-08-11T02:09:57.847Z,100.00
2022-08-11T02:12:52.349Z,100.00
2022-08-11T02:15:34.526Z,100.00
2022-08-11T02:18:15.020Z,100.00
2022-08-11T02:21:10.144Z,100.00
2022-08-11T02:24:06.655Z,100.00
2022-08-11T02:26:44.703Z,100.00
2022-08-11T02:29:26.940Z,100.00
2022-08-11T02:32:34.014Z,100.00
2022-08-11T02:35:20.123Z,100.00
2022-08-11T02:38:02.192Z,100.00
2022-08-11T02:40:50.527Z,100.00
2022-08-11T02:43:36.184Z,100.00
2022-08-11T02:46:23.061Z,100.00
2022-08-11T02:49:18.586Z,100.00
2022-08-11T02:52:09.759Z,100.00
2022-08-11T02:54:54.727Z,100.00
2022-08-11T02:57:34.812Z,100.00
2022-08-11T03:00:09.753Z,100.00
2022-08-11T03:03:07.669Z,100.00
2022-08-11T03:06:09.281Z,100.00
2022-08-11T03:08:52.621Z,100.00
2022-08-11T03:11:57.830Z,100.00
2022-08-11T03:14:53.513Z,100.00
2022-08-11T03:17:31.707Z,100.00
2022-08-11T03:20:33.523Z,100.00
2022-08-11T03:23:19.927Z,100.00
2022-08-11T03:26:02.808Z,100.00
2022-08-11T03:28:44.251Z,100.00
2022-08-11T03:31:28.391Z,100.00
2022-08-11T03:34:07.910Z,100.00
2022-08-11T03:37:34.465Z,100.00
2022-08-11T03:40:41.329Z,100.00
2022-08-11T03:43:30.322Z,100.00
2022-08-11T03:46:09.724Z,100.00
2022-08-11T03:48:56.010Z,100.00
2022-08-11T03:51:44.775Z,100.00
2022-08-11T03:54:37.364Z,100.00
2022-08-11T03:57:49.844Z,100.00
2022-08-11T04:01:09.161Z,100.00
2022-08-11T04:04:33.372Z,100.00
2022-08-11T04:07:59.201Z,100.00
2022-08-11T04:11:29.084Z,100.00
2022-08-11T04:14:54.908Z,100.00
2022-08-11T04:18:02.258Z,100.00
2022-08-11T04:21:22.046Z,100.00
2022-08-11T04:24:38.719Z,100.00
2022-08-11T04:27:56.232Z,100.00
2022-08-11T04:30:40.456Z,100.00
2022-08-11T04:33:59.784Z,100.00
2022-08-11T04:37:16.226Z,100.00
2022-08-11T04:40:25.457Z,100.00
2022-08-11T04:44:05.718Z,100.00
2022-08-11T04:46:58.798Z,100.00
2022-08-11T04:50:14.198Z,100.00
2022-08-11T04:53:38.486Z,100.00
2022-08-11T04:56:33.004Z,100.00
2022-08-11T05:00:19.842Z,100.00
2022-08-11T05:03:47.396Z,100.00
2022-08-11T05:07:03.891Z,100.00
2022-08-11T05:10:17.414Z,100.00
2022-08-11T05:12:51.242Z,100.00
2022-08-11T05:15:52.004Z,100.00
2022-08-11T05:18:42.623Z,100.00
2022-08-11T05:21:44.476Z,100.00
2022-08-11T05:24:39.708Z,100.00
2022-08-11T05:27:32.817Z,100.00
2022-08-11T05:30:23.984Z,100.00
2022-08-11T05:33:17.995Z,100.00
2022-08-11T05:36:01.857Z,100.00
2022-08-11T05:38:54.834Z,100.00
2022-08-11T05:41:47.992Z,100.00
2022-08-11T05:44:39.919Z,100.00
2022-08-11T05:47:27.460Z,100.00
2022-08-11T05:50:15.122Z,100.00
2022-08-11T05:53:08.901Z,100.00
2022-08-11T05:56:03.147Z,100.00
2022-08-11T05:58:42.287Z,100.00
2022-08-11T06:01:15.324Z,100.00
2022-08-11T06:04:04.260Z,100.00
2022-08-11T06:06:34.010Z,100.00
2022-08-11T06:09:03.843Z,100.00
2022-08-11T06:11:45.503Z,100.00
2022-08-11T06:14:16.556Z,100.00
2022-08-11T06:16:51.135Z,99.14
2022-08-11T06:19:24.775Z,97.42
2022-08-11T06:21:54.634Z,98.88
2022-08-11T06:24:24.494Z,97.68
2022-08-11T06:27:11.900Z,94.60
2022-08-11T06:29:54.952Z,92.12
2022-08-11T06:32:32.915Z,90.93
2022-08-11T06:35:24.820Z,90.43
2022-08-11T06:38:07.565Z,88.97
2022-08-11T06:41:06.096Z,87.52
2022-08-11T06:43:55.360Z,86.41
2022-08-11T06:46:30.680Z,84.51
2022-08-11T06:49:03.911Z,84.42
2022-08-11T06:51:35.088Z,83.61
2022-08-11T06:54:06.004Z,84.07
2022-08-11T06:57:26.445Z,83.81
2022-08-11T07:00:04.879Z,82.96
2022-08-11T07:02:39.059Z,82.11
2022-08-11T07:05:21.797Z,79.13
2022-08-11T07:08:59.415Z,76.75
2022-08-11T07:12:18.959Z,74.62
2022-08-11T07:15:10.469Z,72.75
2022-08-11T07:17:49.534Z,73.63
2022-08-11T07:20:38.154Z,71.29
2022-08-11T07:23:29.085Z,65.43
2022-08-11T07:26:19.656Z,68.73
2022-08-11T07:28:58.443Z,69.07
2022-08-11T07:31:42.092Z,70.44
2022-08-11T07:34:21.564Z,67.17
2022-08-11T07:36:57.022Z,63.67
2022-08-11T07:39:29.455Z,62.72
2022-08-11T07:42:01.474Z,61.10
2022-08-11T07:44:34.971Z,64.74
2022-08-11T07:47:23.014Z,60.76
2022-08-11T07:50:12.493Z,61.93
2022-08-11T07:52:43.372Z,61.32
2022-08-11T07:55:16.934Z,60.15
2022-08-11T07:58:15.162Z,59.84
2022-08-11T08:01:10.161Z,57.89
2022-08-11T08:03:59.410Z,58.89
2022-08-11T08:06:47.691Z,57.73
2022-08-11T08:09:38.651Z,57.73
2022-08-11T08:12:27.394Z,56.97
2022-08-11T08:15:16.046Z,55.89
2022-08-11T08:18:08.949Z,57.29
2022-08-11T08:20:50.697Z,56.66
2022-08-11T08:23:33.466Z,56.15
2022-08-11T08:26:29.003Z,55.57
2022-08-11T08:29:16.466Z,54.29
2022-08-11T08:31:48.486Z,52.46
2022-08-11T08:34:19.632Z,54.42
2022-08-11T08:36:51.835Z,51.00
2022-08-11T08:39:22.163Z,50.83
2022-08-11T08:41:56.473Z,49.72
2022-08-11T08:44:38.216Z,48.65
2022-08-11T08:47:15.389Z,50.13
2022-08-11T08:50:09.370Z,49.08
2022-08-11T08:52:54.793Z,49.78
2022-08-11T08:55:24.587Z,48.48
2022-08-11T08:57:58.116Z,46.69
2022-08-11T09:00:38.780Z,48.55
2022-08-11T09:03:38.223Z,44.73
2022-08-11T09:05:58.562Z,46.60
2022-08-11T09:08:29.531Z,45.83
2022-08-11T09:11:17.033Z,47.03
2022-08-11T09:14:06.491Z,46.27
2022-08-11T09:16:41.302Z,45.00
2022-08-11T09:19:17.619Z,48.56
2022-08-11T09:22:12.552Z,45.26
2022-08-11T09:25:00.036Z,46.38
2022-08-11T09:27:29.539Z,45.14
2022-08-11T09:30:00.254Z,46.42
2022-08-11T09:32:33.577Z,47.15
2022-08-11T09:35:05.894Z,46.87
2022-08-11T09:37:56.618Z,48.54
2022-08-11T09:40:31.223Z,47.80
2022-08-11T09:43:21.492Z,44.79
2022-08-11T09:45:55.942Z,46.78
2022-08-11T09:48:27.762Z,45.18
2022-08-11T09:51:01.099Z,44.85
2022-08-11T09:53:40.503Z,45.62
2022-08-11T09:56:33.852Z,44.13
2022-08-11T09:59:04.542Z,44.32
2022-08-11T10:01:41.694Z,44.22
2022-08-11T10:04:15.566Z,43.22
2022-08-11T10:07:05.533Z,44.10
2022-08-11T10:09:44.105Z,44.54
2022-08-11T10:12:24.530Z,43.16
2022-08-11T10:15:14.547Z,41.99
2022-08-11T10:18:03.806Z,43.17
2022-08-11T10:20:39.096Z,41.59
2022-08-11T10:23:33.438Z,38.70
2022-08-11T10:26:22.668Z,41.05
2022-08-11T10:29:12.169Z,41.28
2022-08-11T10:32:04.297Z,40.39
2022-08-11T10:34:36.049Z,40.37
2022-08-11T10:37:15.052Z,41.16
2022-08-11T10:39:45.770Z,38.36
2022-08-11T10:42:55.294Z,40.38
2022-08-11T10:45:40.976Z,37.49
2022-08-11T10:48:15.245Z,38.13
2022-08-11T10:51:07.325Z,38.22
2022-08-11T10:53:55.338Z,37.65
2022-08-11T10:56:42.839Z,35.37
2022-08-11T10:59:12.272Z,35.64
2022-08-11T11:01:46.104Z,36.89
2022-08-11T11:04:18.623Z,34.38
2022-08-11T11:07:00.982Z,34.67
2022-08-11T11:09:33.425Z,32.49
2022-08-11T11:12:27.642Z,30.99
2022-08-11T11:15:16.151Z,29.65
2022-08-11T11:18:01.817Z,29.71
2022-08-11T11:20:39.317Z,29.46
2022-08-11T11:23:20.037Z,28.77
2022-08-11T11:26:31.124Z,26.62
2022-08-11T11:29:49.694Z,27.01
2022-08-11T11:32:32.316Z,26.52
2022-08-11T11:35:27.854Z,26.75
2022-08-11T11:38:05.022Z,26.66
2022-08-11T11:40:37.510Z,25.08
2022-08-11T11:43:07.115Z,24.32
2022-08-11T11:45:36.790Z,24.39
2022-08-11T11:48:07.460Z,25.24
2022-08-11T11:50:39.529Z,25.87
2022-08-11T11:53:11.752Z,23.46
2022-08-11T11:55:43.155Z,24.59
2022-08-11T11:58:31.313Z,22.73
2022-08-11T12:01:20.179Z,22.75
2022-08-11T12:03:52.976Z,24.99
2022-08-11T12:06:27.717Z,27.74
2022-08-11T12:09:01.730Z,26.92
2022-08-11T12:11:51.673Z,29.95
2022-08-11T12:14:27.002Z,30.44
2022-08-11T12:16:58.829Z,29.58
2022-08-11T12:19:35.808Z,29.14
2022-08-11T12:22:24.883Z,28.85
2022-08-11T12:25:12.501Z,29.77
2022-08-11T12:27:43.667Z,27.86
2022-08-11T12:30:15.407Z,27.41
2022-08-11T12:32:45.749Z,25.40
2022-08-11T12:35:17.907Z,25.07
2022-08-11T12:37:50.716Z,22.76
2022-08-11T12:41:11.714Z,22.60
2022-08-11T12:43:56.855Z,23.48
2022-08-11T12:46:35.745Z,24.06
2022-08-11T12:49:30.920Z,20.43
2022-08-11T12:52:15.049Z,19.85
2022-08-11T12:54:57.981Z,19.31
2022-08-11T12:57:52.679Z,17.40
2022-08-11T13:00:42.627Z,20.59
2022-08-11T13:03:32.419Z,24.51
2022-08-11T13:06:05.443Z,26.38
2022-08-11T13:08:39.669Z,28.30
2022-08-11T13:11:56.910Z,29.67
2022-08-11T13:14:21.343Z,30.45
2022-08-11T13:17:15.272Z,30.37
2022-08-11T13:19:49.596Z,29.30
2022-08-11T13:22:21.712Z,29.28
2022-08-11T13:24:55.258Z,30.11
2022-08-11T13:27:26.092Z,31.17
2022-08-11T13:30:15.834Z,30.04
2022-08-11T13:32:48.058Z,29.16
2022-08-11T13:35:18.968Z,27.73
2022-08-11T13:38:18.625Z,27.52
2022-08-11T13:40:55.277Z,29.62
2022-08-11T13:43:26.125Z,29.58
2022-08-11T13:46:16.624Z,29.22
2022-08-11T13:48:47.702Z,30.19
2022-08-11T13:51:34.792Z,25.70
2022-08-11T13:54:09.002Z,29.79
2022-08-11T13:56:43.599Z,29.69
2022-08-11T13:59:15.702Z,28.32
2022-08-11T14:01:51.442Z,27.48
2022-08-11T14:04:45.138Z,28.73
2022-08-11T14:07:19.953Z,26.92
2022-08-11T14:09:56.475Z,27.64
2022-08-11T14:12:46.168Z,28.82
2022-08-11T14:15:20.903Z,29.86
2022-08-11T14:17:56.374Z,27.80
2022-08-11T14:20:47.436Z,26.63
2022-08-11T14:23:16.949Z,26.71
2022-08-11T14:26:02.299Z,29.26
2022-08-11T14:28:41.658Z,28.91
2022-08-11T14:31:15.947Z,29.43
2022-08-11T14:33:59.799Z,29.25
2022-08-11T14:36:39.711Z,29.07
2022-08-11T14:39:13.180Z,29.74
2022-08-11T14:42:12.088Z,28.87
2022-08-11T14:45:06.017Z,29.76
2022-08-11T14:47:37.714Z,28.33
2022-08-11T14:50:14.031Z,30.11
2022-08-11T14:52:51.898Z,30.38
2022-08-11T14:55:41.019Z,30.70
2022-08-11T14:58:12.221Z,33.29
2022-08-11T15:00:44.247Z,31.20
2022-08-11T15:03:15.415Z,32.05
2022-08-11T15:05:54.316Z,31.32
2022-08-11T15:08:48.880Z,30.81
2022-08-11T15:11:40.180Z,30.96
2022-08-11T15:14:12.342Z,31.99
2022-08-11T15:17:05.735Z,32.54
2022-08-11T15:19:40.987Z,33.69
2022-08-11T15:22:29.253Z,34.10
2022-08-11T15:25:01.218Z,34.06
2022-08-11T15:27:52.325Z,34.38
2022-08-11T15:30:41.077Z,33.80
2022-08-11T15:33:44.935Z,33.65
2022-08-11T15:36:33.569Z,34.17
2022-08-11T15:39:09.500Z,34.56
2022-08-11T15:42:15.785Z,35.43
2022-08-11T15:45:10.006Z,36.12
2022-08-11T15:47:46.103Z,36.31
2022-08-11T15:50:22.050Z,36.60
2022-08-11T15:53:00.644Z,36.32
2022-08-11T15:55:33.750Z,36.42
2022-08-11T15:58:27.429Z,36.25
2022-08-11T16:01:16.198Z,36.39
2022-08-11T16:04:12.610Z,36.38
2022-08-11T16:06:55.725Z,37.09
2022-08-11T16:09:46.821Z,37.17
2022-08-11T16:12:21.620Z,37.20
2022-08-11T16:15:15.410Z,37.75
2022-08-11T16:17:54.440Z,38.41
2022-08-11T16:20:27.496Z,39.34
2022-08-11T16:23:02.858Z,39.29
2022-08-11T16:27:07.217Z,39.41
2022-08-11T16:28:28.815Z,40.58
2022-08-11T16:30:59.639Z,41.02
2022-08-11T16:33:51.078Z,41.69
2022-08-11T16:36:38.933Z,41.76
2022-08-11T16:39:09.612Z,40.53
2022-08-11T16:42:01.030Z,38.91
2022-08-11T16:44:51.512Z,39.13
2022-08-11T16:48:02.082Z,39.99
2022-08-11T16:50:14.610Z,39.55
2022-08-11T16:52:46.440Z,40.62
2022-08-11T16:55:52.097Z,39.45
2022-08-11T16:58:25.420Z,40.44
2022-08-11T17:00:59.031Z,40.60
2022-08-11T17:03:52.191Z,41.54
2022-08-11T17:06:40.220Z,41.75
2022-08-11T17:09:29.561Z,42.42
2022-08-11T17:12:18.765Z,41.34
2022-08-11T17:14:53.172Z,41.66
2022-08-11T17:17:30.071Z,40.80
2022-08-11T17:20:40.962Z,40.80
2022-08-11T17:23:15.303Z,40.66
2022-08-11T17:26:03.876Z,40.96
2022-08-11T17:28:36.343Z,41.91
2022-08-11T17:31:22.840Z,42.37
2022-08-11T17:34:11.428Z,42.73
2022-08-11T17:36:45.854Z,43.38
2022-08-11T17:39:17.244Z,43.43
2022-08-11T17:42:04.383Z,43.48
2022-08-11T17:44:50.018Z,43.87
2022-08-11T17:47:39.701Z,44.44
2022-08-11T17:50:17.252Z,44.34
2022-08-11T17:53:07.466Z,44.79
2022-08-11T17:55:56.015Z,44.18
2022-08-11T17:58:46.190Z,44.56
2022-08-11T18:01:17.171Z,46.13
2022-08-11T18:03:53.276Z,48.10
2022-08-11T18:06:34.035Z,48.22
2022-08-11T18:09:28.119Z,48.33
2022-08-11T18:12:16.255Z,48.94
2022-08-11T18:15:07.628Z,48.67
2022-08-11T18:17:55.773Z,50.10
2022-08-11T18:20:43.875Z,50.03
2022-08-11T18:23:40.365Z,50.76
2022-08-11T18:26:40.391Z,54.28
2022-08-11T18:29:28.199Z,51.50
2022-08-11T18:32:21.211Z,52.33
2022-08-11T18:35:11.150Z,53.95
2022-08-11T18:38:07.997Z,56.55
2022-08-11T18:40:55.620Z,58.82
2022-08-11T18:43:46.704Z,60.85
2022-08-11T18:46:39.228Z,63.51
2022-08-11T18:50:00.973Z,64.23
2022-08-11T18:52:39.181Z,63.66
2022-08-11T18:55:33.076Z,62.74
2022-08-11T18:58:26.268Z,63.56
2022-08-11T19:01:20.734Z,64.22
2022-08-11T19:04:11.214Z,65.57
2022-08-11T19:07:12.414Z,67.02
2022-08-11T19:10:02.067Z,68.46
2022-08-11T19:12:54.371Z,65.32
2022-08-11T19:15:42.526Z,64.50
2022-08-11T19:18:37.143Z,65.69
2022-08-11T19:21:26.308Z,70.25
2022-08-11T19:24:18.584Z,72.26
2022-08-11T19:27:06.952Z,71.61
2022-08-11T19:30:11.210Z,70.92
2022-08-11T19:33:04.291Z,68.19
2022-08-11T19:36:04.780Z,68.06
2022-08-11T19:38:53.101Z,68.79
2022-08-11T19:41:57.117Z,69.36
2022-08-11T19:44:45.845Z,70.09
2022-08-11T19:47:38.522Z,74.01
2022-08-11T19:50:31.104Z,72.19
2022-08-11T19:53:30.210Z,71.97
2022-08-11T19:56:42.419Z,73.85
2022-08-11T19:59:32.257Z,74.17
2022-08-11T20:02:18.980Z,76.16
2022-08-11T20:05:08.679Z,78.10
2022-08-11T20:07:56.379Z,80.29
2022-08-11T20:10:46.322Z,80.29
2022-08-11T20:13:34.827Z,80.50
2022-08-11T20:16:33.461Z,78.49
2022-08-11T20:19:56.619Z,79.45
2022-08-11T20:22:35.850Z,79.11
2022-08-11T20:25:24.715Z,80.95
2022-08-11T20:28:14.440Z,82.37
2022-08-11T20:31:08.007Z,81.67
2022-08-11T20:33:55.741Z,82.14
2022-08-11T20:36:47.600Z,83.72
2022-08-11T20:39:43.329Z,82.07
2022-08-11T20:42:31.905Z,84.51
2022-08-11T20:45:23.487Z,85.06
2022-08-11T20:48:15.374Z,87.84
2022-08-11T20:51:06.014Z,86.88
2022-08-11T20:53:57.599Z,84.02
2022-08-11T20:56:51.986Z,82.59
2022-08-11T20:59:52.686Z,83.20
2022-08-11T21:02:50.113Z,80.99
2022-08-11T21:06:09.624Z,81.27
2022-08-11T21:08:49.770Z,79.79
2022-08-11T21:11:37.409Z,81.94
2022-08-11T21:14:29.970Z,82.08
2022-08-11T21:17:27.392Z,82.55
2022-08-11T21:20:23.221Z,78.64
2022-08-11T21:23:19.983Z,80.17
2022-08-11T21:26:15.497Z,82.29
2022-08-11T21:29:04.296Z,80.65
2022-08-11T21:31:52.332Z,81.22
2022-08-11T21:34:40.396Z,80.33
2022-08-11T21:37:31.015Z,82.74
2022-08-11T21:40:19.480Z,81.98
2022-08-11T21:43:08.690Z,82.08
2022-08-11T21:45:58.775Z,82.73
2022-08-11T21:48:46.725Z,83.38
2022-08-11T21:51:33.191Z,82.91
2022-08-11T21:54:22.315Z,83.93
2022-08-11T21:57:10.419Z,84.06
2022-08-11T22:00:03.091Z,85.13
2022-08-11T22:02:58.520Z,85.57
2022-08-11T22:05:47.100Z,86.72
2022-08-11T22:08:34.085Z,83.42
2022-08-11T22:11:32.203Z,83.54
2022-08-11T22:14:19.274Z,85.16
2022-08-11T22:17:05.915Z,85.44
2022-08-11T22:19:54.605Z,86.02
2022-08-11T22:22:51.945Z,85.14
2022-08-11T22:25:50.823Z,85.78
2022-08-11T22:28:40.343Z,88.01
2022-08-11T22:31:29.433Z,87.10
2022-08-11T22:34:16.010Z,87.36
2022-08-11T22:37:04.426Z,90.18
2022-08-11T22:40:01.889Z,90.73
2022-08-11T22:42:49.924Z,88.86
2022-08-11T22:45:38.886Z,89.86
2022-08-11T22:48:27.868Z,91.53
2022-08-11T22:51:16.584Z,91.87
2022-08-11T22:54:04.655Z,94.02
2022-08-11T22:56:52.854Z,92.80
2022-08-11T22:59:41.075Z,92.46
2022-08-11T23:02:30.334Z,89.56
2022-08-11T23:05:17.929Z,91.86
2022-08-11T23:08:05.080Z,90.51
2022-08-11T23:10:52.908Z,91.81
2022-08-11T23:13:40.480Z,91.99
2022-08-11T23:16:27.563Z,95.57
2022-08-11T23:20:07.348Z,98.82
2022-08-11T23:22:23.434Z,98.52
2022-08-11T23:25:24.625Z,94.88
2022-08-11T23:28:11.667Z,90.64
2022-08-11T23:30:59.278Z,92.13
2022-08-11T23:33:49.152Z,91.60
2022-08-11T23:36:47.056Z,90.08
2022-08-11T23:39:35.986Z,91.34
2022-08-11T23:42:24.150Z,85.42
2022-08-11T23:45:10.789Z,83.80
2022-08-11T23:47:58.089Z,85.99
2022-08-11T23:50:45.469Z,82.87
2022-08-11T23:53:33.667Z,90.04
2022-08-11T23:56:21.870Z,91.92
2022-08-11T23:59:09.054Z,92.28
